Time;durP1;ratioP1;P1;durP2;ratioP2;P2;SDS_P1;SDS_P2;PMS_P1;PMS_P2;Temp;Humidity;BMP_temperature;BMP_pressure;BME280_temperature;BME280_humidity;BME280_pressure;Samples;Min_cycle;Max_cycle;Signal;HPM_P1;HPM_P2
2022/11/14 00:01:17;;;;;;;33.80;13.00;;;7.20;99.90;;;;;;5126245;27;20048;-69
2022/11/14 00:03:43;;;;;;;32.45;11.32;;;7.10;99.90;;;;;;5113050;27;20104;-74
2022/11/14 00:06:09;;;;;;;37.75;12.80;;;7.20;99.90;;;;;;5115635;27;20146;-69
2022/11/14 00:08:35;;;;;;;32.45;11.50;;;7.20;99.90;;;;;;5100246;27;20044;-73
2022/11/14 00:11:01;;;;;;;35.70;12.60;;;7.10;99.90;;;;;;5121504;27;20079;-70
2022/11/14 00:13:26;;;;;;;38.95;13.82;;;7.20;99.90;;;;;;5115916;27;20174;-69
2022/11/14 00:15:55;;;;;;;36.75;13.23;;;7.10;99.90;;;;;;5116732;27;20055;-76
2022/11/14 00:18:21;;;;;;;38.47;13.05;;;7.20;99.90;;;;;;5122339;27;20111;-74
2022/11/14 00:20:51;;;;;;;34.65;12.70;;;7.10;99.90;;;;;;5118813;27;20095;-73
2022/11/14 00:23:18;;;;;;;36.17;13.02;;;7.10;99.90;;;;;;5109652;28;20078;-69
2022/11/14 00:25:44;;;;;;;41.65;14.02;;;7.10;99.90;;;;;;5124220;27;20043;-71
2022/11/14 00:28:10;;;;;;;36.42;13.05;;;7.10;99.90;;;;;;5119082;27;20504;-69
2022/11/14 00:30:36;;;;;;;36.30;12.88;;;7.20;99.90;;;;;;5118955;27;20047;-71
2022/11/14 00:33:02;;;;;;;36.90;13.52;;;7.10;99.90;;;;;;5096604;27;20059;-69
2022/11/14 00:35:27;;;;;;;41.13;14.57;;;7.10;99.90;;;;;;5109461;27;20531;-70
2022/11/14 00:37:53;;;;;;;41.28;14.63;;;7.20;99.90;;;;;;5101535;28;20060;-76
2022/11/14 00:40:18;;;;;;;40.97;14.48;;;7.20;99.90;;;;;;5109008;28;20071;-69
2022/11/14 00:42:44;;;;;;;36.58;15.05;;;7.20;99.90;;;;;;5120802;27;20050;-69
2022/11/14 00:45:10;;;;;;;41.25;14.70;;;7.20;99.90;;;;;;5102636;28;20035;-70
2022/11/14 00:47:36;;;;;;;37.78;13.57;;;7.20;99.90;;;;;;5113764;27;20050;-70
2022/11/14 00:50:02;;;;;;;44.83;15.68;;;7.10;99.90;;;;;;5110700;27;20476;-76
2022/11/14 00:52:28;;;;;;;45.97;15.48;;;7.10;99.90;;;;;;5099050;27;20043;-70
2022/11/14 00:54:53;;;;;;;39.67;15.05;;;7.10;99.90;;;;;;5116990;27;20043;-73
2022/11/14 00:57:19;;;;;;;45.15;16.85;;;7.20;99.90;;;;;;5106884;28;20043;-72
2022/11/14 00:59:45;;;;;;;46.70;15.50;;;7.10;99.90;;;;;;5120356;27;20047;-72
2022/11/14 01:02:10;;;;;;;41.45;15.23;;;7.10;99.90;;;;;;5106014;27;20072;-70
2022/11/14 01:04:36;;;;;;;46.80;16.50;;;7.10;99.90;;;;;;5109761;27;20142;-68
2022/11/14 01:07:01;;;;;;;47.03;16.05;;;7.00;99.90;;;;;;5108814;28;20054;-73
2022/11/14 01:09:27;;;;;;;40.10;15.63;;;7.00;99.90;;;;;;5123933;27;20040;-70
2022/11/14 01:11:53;;;;;;;43.30;16.10;;;7.00;99.90;;;;;;5118441;27;20054;-69
2022/11/14 01:14:18;;;;;;;41.97;16.40;;;7.00;99.90;;;;;;5126653;27;20051;-70
2022/11/14 01:16:44;;;;;;;42.67;15.18;;;6.90;99.90;;;;;;5110546;28;20135;-71
2022/11/14 01:19:10;;;;;;;42.47;16.58;;;6.90;99.90;;;;;;5087217;28;20048;-69
2022/11/14 01:21:35;;;;;;;41.90;15.68;;;6.80;99.90;;;;;;5097187;28;20050;-69
2022/11/14 01:24:01;;;;;;;49.20;17.15;;;6.80;99.90;;;;;;5110097;28;20052;-76
2022/11/14 01:26:27;;;;;;;47.42;16.73;;;6.70;99.90;;;;;;5107476;28;20054;-69
2022/11/14 01:28:52;;;;;;;41.70;15.90;;;6.60;99.90;;;;;;5112810;28;20048;-71
2022/11/14 01:31:21;;;;;;;45.35;16.33;;;6.60;99.90;;;;;;5109587;28;20039;-69
2022/11/14 01:33:49;;;;;;;43.97;16.67;;;6.60;99.90;;;;;;5112282;28;20189;-69
2022/11/14 01:36:15;;;;;;;46.53;16.75;;;6.50;99.90;;;;;;5107980;28;20164;-70
2022/11/14 01:38:40;;;;;;;41.90;15.77;;;6.50;99.90;;;;;;5110533;28;20256;-69
2022/11/14 01:41:06;;;;;;;47.15;17.42;;;6.50;99.90;;;;;;5094656;28;20058;-70
2022/11/14 01:43:34;;;;;;;48.38;16.35;;;6.60;99.90;;;;;;5079973;28;20043;-69
2022/11/14 01:46:27;;;;;;;44.08;15.95;;;6.50;99.90;;;;;;5109310;28;20496;-76
2022/11/14 01:48:58;;;;;;;50.17;17.40;;;6.60;99.90;;;;;;5091709;28;20397;-75
2022/11/14 01:51:39;;;;;;;49.65;16.63;;;6.50;99.90;;;;;;5108168;28;20446;-72
2022/11/14 01:54:11;;;;;;;47.92;18.13;;;6.50;99.90;;;;;;5122011;28;20130;-75
2022/11/14 01:56:40;;;;;;;43.05;17.33;;;6.50;99.90;;;;;;5129897;28;20062;-72
2022/11/14 01:59:08;;;;;;;52.35;16.70;;;6.50;99.90;;;;;;5110511;28;20503;-76
2022/11/14 02:01:43;;;;;;;53.22;18.13;;;6.50;99.90;;;;;;5104375;28;20058;-69
2022/11/14 02:04:09;;;;;;;50.33;17.42;;;6.40;99.90;;;;;;5121665;28;20580;-69
2022/11/14 02:06:35;;;;;;;45.53;15.70;;;6.50;99.90;;;;;;5109229;28;20050;-71
2022/11/14 02:09:03;;;;;;;53.90;16.60;;;6.50;99.90;;;;;;5115734;28;20047;-73
2022/11/14 02:11:33;;;;;;;49.50;17.52;;;6.50;99.90;;;;;;5119250;28;20091;-70
2022/11/14 02:14:00;;;;;;;47.22;17.05;;;6.50;99.90;;;;;;5112101;28;20055;-69
2022/11/14 02:16:26;;;;;;;45.70;16.85;;;6.60;99.90;;;;;;5129923;28;20057;-69
2022/11/14 02:18:52;;;;;;;56.17;17.70;;;6.60;99.90;;;;;;5112179;28;20126;-75
2022/11/14 02:21:18;;;;;;;47.38;16.17;;;6.50;99.90;;;;;;5128901;28;20130;-70
2022/11/14 02:23:43;;;;;;;52.22;18.73;;;6.60;99.90;;;;;;5130798;28;20096;-72
2022/11/14 02:26:09;;;;;;;51.47;19.00;;;6.50;99.90;;;;;;5130059;28;20047;-76
2022/11/14 02:28:35;;;;;;;48.63;16.52;;;6.50;99.90;;;;;;5120245;28;20488;-70
2022/11/14 02:31:01;;;;;;;;;;;6.60;99.90;;;;;;5091910;28;20570;-69
2022/11/14 02:33:26;;;;;;;50.15;16.23;;;6.50;99.90;;;;;;5129164;27;19919;-70
2022/11/14 02:35:52;;;;;;;48.58;16.92;;;6.50;99.90;;;;;;5128617;27;20043;-73
2022/11/14 02:38:18;;;;;;;49.60;16.35;;;6.60;99.90;;;;;;5129985;27;20511;-70
2022/11/14 02:40:44;;;;;;;43.65;15.68;;;6.50;99.90;;;;;;5134403;27;20039;-71
2022/11/14 02:43:09;;;;;;;44.25;17.55;;;6.60;99.90;;;;;;5133876;27;20087;-76
2022/11/14 02:45:35;;;;;;;56.22;19.75;;;6.60;99.90;;;;;;5129346;27;20047;-71
2022/11/14 02:48:01;;;;;;;51.10;18.02;;;6.60;99.90;;;;;;5095359;28;20112;-69
2022/11/14 02:50:26;;;;;;;45.78;17.42;;;6.60;99.90;;;;;;5111756;28;20626;-68
2022/11/14 02:52:52;;;;;;;55.80;19.30;;;6.60;99.90;;;;;;5094139;28;20515;-69
2022/11/14 02:55:19;;;;;;;;;;;6.60;99.90;;;;;;5113307;28;20050;-69
2022/11/14 02:57:44;;;;;;;48.08;18.63;;;6.60;99.90;;;;;;5113418;28;19923;-69
2022/11/14 03:00:10;;;;;;;46.33;17.13;;;6.60;99.90;;;;;;5112720;28;20059;-76
2022/11/14 03:02:36;;;;;;;;;;;6.60;99.90;;;;;;5096821;28;20547;-70
2022/11/14 03:05:02;;;;;;;49.38;17.40;;;6.60;99.90;;;;;;5112085;28;19962;-69
2022/11/14 03:07:28;;;;;;;48.35;18.52;;;6.60;99.90;;;;;;5111554;28;20040;-69
2022/11/14 03:09:53;;;;;;;49.53;17.67;;;6.60;99.90;;;;;;5130645;27;20035;-69
2022/11/14 03:12:19;;;;;;;48.70;18.00;;;6.60;99.90;;;;;;5114845;27;20051;-69
2022/11/14 03:14:45;;;;;;;48.42;18.42;;;6.70;99.90;;;;;;5133356;27;20051;-70
2022/11/14 03:17:10;;;;;;;38.35;15.48;;;6.60;99.90;;;;;;5122396;27;20155;-74
2022/11/14 03:19:36;;;;;;;51.15;17.25;;;6.60;99.90;;;;;;5093686;28;20051;-71
2022/11/14 03:22:02;;;;;;;44.20;16.10;;;6.60;99.90;;;;;;5112001;28;20054;-70
2022/11/14 03:24:27;;;;;;;46.55;16.58;;;6.60;99.90;;;;;;5112280;28;20104;-69
2022/11/14 03:26:53;;;;;;;42.70;15.98;;;6.60;99.90;;;;;;5112819;28;20134;-70
2022/11/14 03:29:19;;;;;;;43.30;15.85;;;6.60;99.90;;;;;;5111898;28;20055;-69
2022/11/14 03:31:44;;;;;;;51.83;17.38;;;6.60;99.90;;;;;;5094249;28;20173;-70
2022/11/14 03:34:11;;;;;;;47.83;18.70;;;6.60;99.90;;;;;;5114519;27;20152;-75
2022/11/14 03:36:37;;;;;;;48.60;18.13;;;6.60;99.90;;;;;;5093016;28;20043;-70
2022/11/14 03:39:03;;;;;;;47.60;17.73;;;6.60;99.90;;;;;;5115768;27;20126;-69
2022/11/14 03:41:29;;;;;;;;;;;6.60;99.90;;;;;;5115328;27;20084;-70
2022/11/14 03:43:55;;;;;;;42.00;17.52;;;6.70;99.90;;;;;;5112455;27;20011;-71
2022/11/14 03:46:20;;;;;;;45.80;16.48;;;6.60;99.90;;;;;;5131934;27;20068;-68
2022/11/14 03:48:46;;;;;;;55.20;17.23;;;6.60;99.90;;;;;;5130371;27;20686;-69
2022/11/14 03:51:12;;;;;;;48.30;17.30;;;6.60;99.90;;;;;;5109687;28;20048;-75
2022/11/14 03:53:38;;;;;;;54.03;18.05;;;6.60;99.90;;;;;;5094002;27;20473;-69
2022/11/14 03:56:04;;;;;;;50.40;17.63;;;6.60;99.90;;;;;;5112302;28;20097;-69
2022/11/14 03:58:29;;;;;;;51.67;17.08;;;6.60;99.90;;;;;;5111184;28;20488;-68
2022/11/14 04:00:55;;;;;;;47.22;17.75;;;6.60;99.90;;;;;;5111723;28;20233;-71
2022/11/14 04:03:22;;;;;;;43.72;17.42;;;6.60;99.90;;;;;;5111640;28;20074;-69
2022/11/14 04:05:48;;;;;;;41.03;16.73;;;6.60;99.90;;;;;;5091852;28;20051;-75
2022/11/14 04:08:14;;;;;;;47.28;17.05;;;6.60;99.90;;;;;;5111524;28;20056;-75
2022/11/14 04:10:40;;;;;;;44.30;16.98;;;6.60;99.90;;;;;;5101038;27;20042;-69
2022/11/14 04:13:06;;;;;;;45.92;17.38;;;6.60;99.90;;;;;;5123352;27;20055;-69
2022/11/14 04:15:32;;;;;;;44.88;15.50;;;6.60;99.90;;;;;;5131407;27;20055;-68
2022/11/14 04:17:59;;;;;;;42.72;17.27;;;6.60;99.90;;;;;;5114017;27;20075;-74
2022/11/14 04:20:25;;;;;;;43.28;15.52;;;6.70;99.90;;;;;;5127734;27;20084;-74
2022/11/14 04:22:51;;;;;;;44.47;17.55;;;6.60;99.90;;;;;;5112964;27;20051;-69
2022/11/14 04:25:17;;;;;;;44.55;16.95;;;6.60;99.90;;;;;;5115138;27;20051;-76
2022/11/14 04:27:42;;;;;;;44.85;16.45;;;6.60;99.90;;;;;;5098217;27;20071;-73
2022/11/14 04:30:09;;;;;;;45.55;16.42;;;6.60;99.90;;;;;;5131749;27;20039;-69
2022/11/14 04:32:34;;;;;;;;;;;6.60;99.90;;;;;;5127034;27;20077;-71
2022/11/14 04:35:00;;;;;;;43.42;16.95;;;6.60;99.90;;;;;;5108753;27;19940;-69
2022/11/14 04:37:26;;;;;;;47.35;17.42;;;6.60;99.90;;;;;;5107233;28;20047;-69
2022/11/14 04:39:51;;;;;;;47.90;17.20;;;6.70;99.90;;;;;;5093265;28;20047;-69
2022/11/14 04:42:17;;;;;;;41.33;15.13;;;6.60;99.90;;;;;;5111367;28;20480;-76
2022/11/14 04:44:43;;;;;;;44.83;15.80;;;6.60;99.90;;;;;;5123294;27;20045;-69
2022/11/14 04:47:08;;;;;;;50.58;17.23;;;6.60;99.90;;;;;;5131671;27;20051;-71
2022/11/14 04:49:34;;;;;;;43.92;16.48;;;6.60;99.90;;;;;;5111830;27;20518;-69
2022/11/14 04:52:00;;;;;;;40.28;15.90;;;6.60;99.90;;;;;;5130876;27;20039;-69
2022/11/14 04:54:26;;;;;;;50.40;16.67;;;6.60;99.90;;;;;;5118778;27;20050;-69
2022/11/14 04:56:51;;;;;;;46.35;16.95;;;6.60;99.90;;;;;;5110710;28;20075;-70
2022/11/14 04:59:17;;;;;;;47.85;18.10;;;6.50;99.90;;;;;;5110811;28;20439;-73
2022/11/14 05:01:43;;;;;;;48.90;16.70;;;6.60;99.90;;;;;;5110478;28;20075;-70
2022/11/14 05:04:08;;;;;;;43.75;16.90;;;6.60;99.90;;;;;;5110099;28;20090;-69
2022/11/14 05:06:34;;;;;;;46.42;16.35;;;6.60;99.90;;;;;;5109104;28;20047;-69
2022/11/14 05:08:59;;;;;;;47.13;16.27;;;6.60;99.90;;;;;;5111290;27;20096;-69
2022/11/14 05:11:25;;;;;;;56.15;18.83;;;6.70;99.90;;;;;;5112484;28;20047;-75
2022/11/14 05:13:51;;;;;;;48.42;16.52;;;6.60;99.90;;;;;;5112771;28;20077;-70
2022/11/14 05:16:17;;;;;;;42.67;15.20;;;6.60;99.90;;;;;;5122223;27;20053;-71
2022/11/14 05:18:43;;;;;;;45.67;16.67;;;6.50;99.90;;;;;;5092208;28;20172;-70
2022/11/14 05:21:13;;;;;;;46.90;16.77;;;6.50;99.90;;;;;;5108884;28;20755;-69
2022/11/14 05:23:39;;;;;;;54.00;17.35;;;6.50;99.90;;;;;;5110209;28;20489;-70
2022/11/14 05:26:07;;;;;;;42.40;15.38;;;6.50;99.90;;;;;;5124914;28;20035;-72
2022/11/14 05:28:33;;;;;;;45.50;15.50;;;6.40;99.90;;;;;;5130828;28;20043;-70
2022/11/14 05:31:04;;;;;;;46.50;16.45;;;6.40;99.90;;;;;;5130651;28;20043;-70
2022/11/14 05:33:30;;;;;;;47.15;16.45;;;6.40;99.90;;;;;;5130556;28;20408;-69
2022/11/14 05:36:01;;;;;;;46.92;17.50;;;6.40;99.90;;;;;;5123275;28;20062;-72
2022/11/14 05:38:27;;;;;;;51.80;17.33;;;6.40;99.90;;;;;;5112243;28;20486;-75
2022/11/14 05:40:53;;;;;;;45.88;16.90;;;6.40;99.90;;;;;;5110498;28;20087;-70
2022/11/14 05:43:18;;;;;;;42.28;15.63;;;6.40;99.90;;;;;;5110749;28;20043;-69
2022/11/14 05:45:44;;;;;;;52.00;17.13;;;6.40;99.90;;;;;;5117467;28;20046;-70
2022/11/14 05:48:10;;;;;;;48.38;17.02;;;6.40;99.90;;;;;;5110939;28;20511;-69
2022/11/14 05:50:35;;;;;;;46.75;16.73;;;6.40;99.90;;;;;;5115691;28;20057;-72
2022/11/14 05:53:01;;;;;;;49.28;18.15;;;6.40;99.90;;;;;;5128095;28;20073;-69
2022/11/14 05:55:26;;;;;;;47.50;16.42;;;6.40;99.90;;;;;;5127417;28;20054;-75
2022/11/14 05:57:52;;;;;;;49.03;17.63;;;6.40;99.90;;;;;;5094572;28;20128;-69
2022/11/14 06:00:18;;;;;;;50.05;16.13;;;6.40;99.90;;;;;;5117760;28;20096;-71
2022/11/14 06:02:45;;;;;;;50.63;18.40;;;6.40;99.90;;;;;;5109492;28;20051;-69
2022/11/14 06:05:10;;;;;;;49.33;16.67;;;6.40;99.90;;;;;;5109251;28;20054;-69
2022/11/14 06:07:37;;;;;;;47.88;16.88;;;6.30;99.90;;;;;;5121410;27;20066;-70
2022/11/14 06:10:04;;;;;;;48.92;18.48;;;6.30;99.90;;;;;;5102521;28;20144;-69
2022/11/14 06:12:31;;;;;;;51.58;17.38;;;6.30;99.90;;;;;;5113696;28;20043;-75
2022/11/14 06:14:56;;;;;;;48.30;16.48;;;6.30;99.90;;;;;;5096025;28;20098;-69
2022/11/14 06:17:22;;;;;;;43.33;16.30;;;6.30;99.90;;;;;;5097236;28;20475;-69
2022/11/14 06:19:48;;;;;;;54.25;18.33;;;6.20;99.90;;;;;;5112527;28;20039;-70
2022/11/14 06:22:13;;;;;;;51.72;16.60;;;6.30;99.90;;;;;;5110447;27;20043;-71
2022/11/14 06:24:39;;;;;;;47.58;15.93;;;6.20;99.90;;;;;;5132711;27;20065;-69
2022/11/14 06:27:04;;;;;;;45.55;16.50;;;6.10;99.90;;;;;;5134500;27;20491;-69
2022/11/14 06:29:30;;;;;;;48.78;17.75;;;6.10;99.90;;;;;;5115699;27;20490;-76
2022/11/14 06:31:56;;;;;;;49.08;16.75;;;6.00;99.90;;;;;;5134241;27;20508;-69
2022/11/14 06:34:21;;;;;;;44.90;15.55;;;6.00;99.90;;;;;;5113497;27;20051;-70
2022/11/14 06:36:47;;;;;;;47.35;17.05;;;6.00;99.90;;;;;;5112164;28;20039;-70
2022/11/14 06:39:13;;;;;;;49.30;16.88;;;5.90;99.90;;;;;;5120836;27;20129;-70
2022/11/14 06:41:38;;;;;;;56.40;16.88;;;5.90;99.90;;;;;;5130696;27;20054;-71
2022/11/14 06:44:07;;;;;;;51.85;17.00;;;5.90;99.90;;;;;;5134126;27;20046;-70
2022/11/14 06:46:32;;;;;;;48.80;17.13;;;5.80;99.90;;;;;;5133380;27;20125;-76
2022/11/14 06:48:58;;;;;;;50.25;16.50;;;5.70;99.90;;;;;;5114975;27;20481;-70
2022/11/14 06:51:24;;;;;;;60.45;16.75;;;5.80;99.90;;;;;;5132890;27;20471;-70
2022/11/14 06:53:49;;;;;;;50.35;18.75;;;5.80;99.90;;;;;;5119267;27;20587;-70
2022/11/14 06:56:17;;;;;;;65.63;17.88;;;5.80;99.90;;;;;;5115992;27;20112;-71
2022/11/14 06:58:45;;;;;;;55.00;18.17;;;5.70;99.90;;;;;;5133411;27;20050;-70
2022/11/14 07:01:15;;;;;;;52.40;17.67;;;5.70;99.90;;;;;;5124645;27;20104;-69
2022/11/14 07:03:41;;;;;;;61.50;17.83;;;5.70;99.90;;;;;;5094715;28;20054;-70
2022/11/14 07:06:09;;;;;;;61.65;18.75;;;5.60;99.90;;;;;;5111775;27;20043;-73
2022/11/14 07:08:35;;;;;;;54.25;18.00;;;5.70;99.90;;;;;;5133409;27;20078;-77
2022/11/14 07:11:02;;;;;;;57.90;18.98;;;5.70;99.90;;;;;;5127876;27;20583;-70
2022/11/14 07:13:28;;;;;;;58.95;17.13;;;5.60;99.90;;;;;;5115353;27;20064;-71
2022/11/14 07:15:54;;;;;;;55.00;18.50;;;5.70;99.90;;;;;;5119817;27;20050;-73
2022/11/14 07:18:20;;;;;;;53.35;18.33;;;5.60;99.90;;;;;;5105831;27;20396;-69
2022/11/14 07:20:46;;;;;;;58.25;19.27;;;5.70;99.90;;;;;;5117371;27;20035;-75
2022/11/14 07:23:12;;;;;;;58.83;18.48;;;5.70;99.90;;;;;;5123346;27;20052;-68
2022/11/14 07:25:38;;;;;;;;;;;5.70;99.90;;;;;;5119678;27;20091;-75
2022/11/14 07:28:03;;;;;;;51.85;17.40;;;5.80;99.90;;;;;;5118998;27;19927;-70
2022/11/14 07:30:29;;;;;;;52.05;18.40;;;5.80;99.90;;;;;;5099655;27;20039;-70
2022/11/14 07:32:58;;;;;;;51.83;18.15;;;5.80;99.90;;;;;;5099251;27;20031;-71
2022/11/14 07:35:24;;;;;;;52.97;17.98;;;5.80;99.90;;;;;;5113165;27;20047;-69
2022/11/14 07:37:51;;;;;;;49.50;17.08;;;5.80;99.90;;;;;;5112233;27;20047;-71
2022/11/14 07:40:17;;;;;;;53.03;19.05;;;5.90;99.90;;;;;;5122411;27;20058;-69
2022/11/14 07:42:43;;;;;;;53.83;17.65;;;5.90;99.90;;;;;;5112995;27;20108;-71
2022/11/14 07:45:09;;;;;;;;;;;6.00;99.90;;;;;;5113347;27;20051;-75
2022/11/14 07:47:35;;;;;;;52.42;17.83;;;6.00;99.90;;;;;;5086988;28;20483;-76
2022/11/14 07:50:01;;;;;;;52.70;18.15;;;6.00;99.90;;;;;;5109036;28;20040;-70
2022/11/14 07:52:27;;;;;;;54.63;18.48;;;6.00;99.90;;;;;;5114380;27;20404;-71
2022/11/14 07:54:52;;;;;;;53.55;17.98;;;6.00;99.90;;;;;;5112991;27;20389;-69
2022/11/14 07:57:18;;;;;;;54.78;18.88;;;6.00;99.90;;;;;;5116957;27;20456;-69
2022/11/14 07:59:44;;;;;;;45.50;16.45;;;6.00;99.90;;;;;;5109837;27;20532;-72
2022/11/14 08:02:13;;;;;;;53.63;19.08;;;6.00;99.90;;;;;;5111019;27;20054;-73
2022/11/14 08:04:40;;;;;;;53.00;18.00;;;6.10;99.90;;;;;;5092411;28;20050;-76
2022/11/14 08:07:06;;;;;;;52.50;17.65;;;6.10;99.90;;;;;;5123792;27;20580;-70
2022/11/14 08:09:32;;;;;;;50.92;17.23;;;6.10;99.90;;;;;;5113705;27;20039;-71
2022/11/14 08:11:57;;;;;;;59.85;18.23;;;6.10;99.90;;;;;;5109803;27;20050;-72
2022/11/14 08:14:23;;;;;;;51.50;17.45;;;6.20;99.90;;;;;;5131501;27;20055;-69
2022/11/14 08:16:49;;;;;;;52.38;18.25;;;6.30;99.90;;;;;;5122990;27;20081;-69
2022/11/14 08:19:15;;;;;;;;;;;6.30;99.90;;;;;;5117236;27;20050;-70
2022/11/14 08:21:42;;;;;;;47.67;16.05;;;6.30;99.90;;;;;;5114988;27;19931;-76
2022/11/14 08:24:07;;;;;;;53.63;16.60;;;6.30;99.90;;;;;;5114680;27;20043;-70
2022/11/14 08:26:33;;;;;;;47.50;16.83;;;6.30;99.90;;;;;;5092007;27;20123;-75
2022/11/14 08:28:59;;;;;;;;;;;6.30;99.90;;;;;;5094435;28;20584;-70
2022/11/14 08:31:25;;;;;;;44.83;15.98;;;6.40;99.90;;;;;;5093497;27;19926;-75
2022/11/14 08:33:51;;;;;;;47.30;17.73;;;6.50;99.90;;;;;;5110504;28;20079;-77
2022/11/14 08:36:17;;;;;;;43.53;16.40;;;6.50;99.90;;;;;;5110703;27;20036;-70
2022/11/14 08:38:43;;;;;;;47.05;15.98;;;6.60;99.90;;;;;;5116994;27;20502;-82
2022/11/14 08:41:08;;;;;;;49.85;16.40;;;6.60;99.90;;;;;;5110814;28;20527;-75
2022/11/14 08:43:34;;;;;;;49.22;17.38;;;6.70;99.90;;;;;;5115750;27;20550;-70
2022/11/14 08:46:02;;;;;;;51.28;16.80;;;6.80;99.90;;;;;;5114192;27;20047;-70
2022/11/14 08:48:28;;;;;;;49.72;16.08;;;6.80;99.90;;;;;;5092781;28;20049;-75
2022/11/14 08:50:54;;;;;;;49.05;18.13;;;6.80;99.90;;;;;;5110533;27;20038;-74
2022/11/14 08:53:20;;;;;;;50.80;15.77;;;6.80;99.90;;;;;;5114346;27;20043;-71
2022/11/14 08:55:47;;;;;;;46.97;15.65;;;6.80;99.90;;;;;;5110521;28;20044;-78
2022/11/14 08:58:14;;;;;;;44.95;15.05;;;6.80;99.90;;;;;;5101208;27;20556;-76
2022/11/14 09:00:40;;;;;;;44.72;15.95;;;6.90;99.90;;;;;;5114113;27;20140;-76
2022/11/14 09:03:12;;;;;;;43.53;16.02;;;7.00;99.90;;;;;;5091840;28;20048;-76
2022/11/14 09:05:37;;;;;;;42.47;16.10;;;7.00;99.90;;;;;;5109550;28;20086;-74
2022/11/14 09:08:03;;;;;;;46.47;17.55;;;7.10;99.90;;;;;;5091396;28;20086;-73
2022/11/14 09:10:29;;;;;;;44.10;16.38;;;7.10;99.90;;;;;;5116965;27;20075;-73
2022/11/14 09:12:59;;;;;;;52.42;16.05;;;7.20;99.90;;;;;;5111790;27;20100;-72
2022/11/14 09:15:29;;;;;;;46.95;16.60;;;7.30;99.90;;;;;;5098722;27;20086;-73
2022/11/14 09:17:55;;;;;;;46.15;17.00;;;7.40;99.90;;;;;;5118699;27;20035;-75
2022/11/14 09:20:22;;;;;;;45.38;16.50;;;7.50;99.90;;;;;;5119854;28;20039;-78
2022/11/14 09:22:51;;;;;;;46.17;16.95;;;7.60;99.90;;;;;;5118202;28;20568;-81
2022/11/14 09:25:16;;;;;;;49.85;17.15;;;7.60;99.90;;;;;;5116202;28;20046;-74
2022/11/14 09:27:42;;;;;;;52.17;17.00;;;7.90;99.90;;;;;;5102115;28;20055;-77
2022/11/14 09:30:09;;;;;;;40.83;15.43;;;7.90;99.90;;;;;;5092331;28;20039;-78
2022/11/14 09:32:34;;;;;;;42.83;15.07;;;8.00;99.90;;;;;;5099665;28;20044;-70
2022/11/14 09:35:00;;;;;;;42.38;15.68;;;8.00;99.90;;;;;;5117759;28;20054;-71
2022/11/14 09:37:26;;;;;;;40.38;14.73;;;8.00;99.90;;;;;;5115402;28;20043;-73
2022/11/14 09:39:51;;;;;;;45.80;16.58;;;8.00;99.90;;;;;;5110384;28;20096;-79
2022/11/14 09:42:39;;;;;;;46.38;15.90;;;8.00;99.90;;;;;;5102641;27;20123;-70
2022/11/14 09:45:11;;;;;;;39.42;16.60;;;8.10;99.90;;;;;;5127619;27;20170;-71
2022/11/14 09:47:46;;;;;;;37.58;15.68;;;8.20;99.90;;;;;;5118435;27;20408;-69
2022/11/14 09:50:27;;;;;;;42.63;14.55;;;8.20;99.90;;;;;;5098199;27;20076;-69
2022/11/14 09:52:56;;;;;;;33.00;14.75;;;8.40;99.90;;;;;;5093912;27;20500;-69
2022/11/14 09:55:23;;;;;;;36.95;13.48;;;8.40;99.90;;;;;;5117857;27;20051;-71
2022/11/14 09:57:48;;;;;;;40.00;15.85;;;8.40;99.90;;;;;;5121026;27;20039;-73
2022/11/14 10:00:20;;;;;;;36.90;14.45;;;8.50;99.90;;;;;;5134192;27;20395;-69
2022/11/14 10:02:53;;;;;;;36.58;12.55;;;8.50;99.90;;;;;;5134888;27;20043;-70
2022/11/14 10:05:25;;;;;;;37.38;14.57;;;8.60;99.90;;;;;;5133905;27;20050;-68
2022/11/14 10:07:56;;;;;;;36.42;14.10;;;8.60;99.90;;;;;;5133972;27;20085;-80
2022/11/14 10:10:46;;;;;;;35.78;12.63;;;8.70;99.90;;;;;;5128722;27;20048;-78
2022/11/14 10:13:35;;;;;;;34.00;13.55;;;8.70;99.90;;;;;;5099052;27;20592;-74
2022/11/14 10:16:21;;;;;;;36.75;13.10;;;8.70;99.90;;;;;;5130241;27;20055;-76
2022/11/14 10:19:06;;;;;;;31.02;12.32;;;8.80;99.90;;;;;;5086493;27;20043;-74
2022/11/14 10:21:45;;;;;;;35.20;13.25;;;8.70;99.90;;;;;;5125194;27;20050;-72
2022/11/14 10:24:38;;;;;;;38.10;13.52;;;8.70;99.90;;;;;;5121092;27;20556;-72
2022/11/14 10:27:09;;;;;;;34.15;14.27;;;8.70;99.90;;;;;;5121269;27;20122;-76
2022/11/14 10:29:50;;;;;;;32.05;12.73;;;8.80;99.90;;;;;;5122426;27;20099;-74
2022/11/14 10:32:18;;;;;;;38.97;15.07;;;8.90;99.90;;;;;;5103772;27;20218;-78
2022/11/14 10:35:01;;;;;;;35.10;13.32;;;9.00;99.90;;;;;;5101856;27;20078;-78
2022/11/14 10:37:35;;;;;;;31.65;12.82;;;9.10;99.90;;;;;;5116527;27;20092;-75
2022/11/14 10:40:22;;;;;;;33.40;13.40;;;9.20;99.90;;;;;;5095566;28;20055;-74
2022/11/14 10:42:49;;;;;;;;;;;9.50;99.90;;;;;;5122376;27;20051;-72
2022/11/14 10:45:34;;;;;;;35.25;12.77;;;10.20;99.90;;;;;;5096538;27;19919;-75
2022/11/14 10:48:09;;;;;;;28.98;12.48;;;10.80;99.90;;;;;;5120367;27;20043;-72
2022/11/14 10:50:46;;;;;;;29.73;12.68;;;11.30;99.90;;;;;;5101357;27;20039;-71
2022/11/14 10:53:41;;;;;;;28.52;11.52;;;11.80;99.90;;;;;;5106549;28;20108;-73
2022/11/14 10:56:13;;;;;;;30.48;12.63;;;12.10;99.90;;;;;;5107106;27;20134;-72
2022/11/14 10:58:40;;;;;;;27.52;11.18;;;12.30;99.90;;;;;;5118761;27;20051;-71
2022/11/14 11:01:52;;;;;;;25.83;11.48;;;12.60;99.90;;;;;;5123731;27;20048;-71
2022/11/14 11:04:30;;;;;;;27.95;12.35;;;12.90;99.90;;;;;;5113758;27;20056;-71
2022/11/14 11:07:08;;;;;;;27.00;12.18;;;13.00;99.90;;;;;;5119867;27;20095;-75
2022/11/14 11:12:44;;;;;;;25.73;11.20;;;13.70;99.90;;;;;;5126257;27;20055;-70
2022/11/14 11:15:15;;;;;;;26.75;11.48;;;14.20;99.90;;;;;;5098683;28;20127;-72
2022/11/14 11:17:53;;;;;;;22.65;11.23;;;14.40;99.90;;;;;;5113192;27;20044;-73
2022/11/14 11:20:40;;;;;;;24.23;10.95;;;14.60;99.90;;;;;;5117153;27;20493;-73
2022/11/14 11:23:08;;;;;;;25.73;11.20;;;14.70;99.90;;;;;;5103001;27;20126;-72
2022/11/14 11:25:35;;;;;;;21.85;9.63;;;15.00;99.90;;;;;;5103887;27;20397;-73
2022/11/14 11:28:11;;;;;;;23.52;11.18;;;15.20;99.90;;;;;;5120584;27;20050;-74
2022/11/14 11:30:37;;;;;;;22.50;10.57;;;15.40;99.90;;;;;;5097219;27;20054;-75
2022/11/14 11:33:23;;;;;;;24.55;11.63;;;15.40;99.90;;;;;;5092054;28;20470;-75
2022/11/14 11:35:52;;;;;;;21.98;9.95;;;15.50;99.90;;;;;;5112663;27;20048;-74
2022/11/14 11:38:19;;;;;;;24.67;10.88;;;15.70;99.90;;;;;;5111837;27;20036;-74
2022/11/14 11:40:51;;;;;;;21.75;10.70;;;15.80;99.90;;;;;;5102045;27;20068;-74
2022/11/14 11:43:33;;;;;;;21.95;10.35;;;16.10;99.90;;;;;;5122500;27;20116;-73
2022/11/14 11:46:03;;;;;;;23.33;10.48;;;16.20;99.90;;;;;;5117439;27;20152;-77
2022/11/14 11:48:39;;;;;;;19.60;9.85;;;16.40;99.90;;;;;;5103027;27;20043;-74
2022/11/14 11:51:11;;;;;;;20.25;10.40;;;16.60;99.90;;;;;;5094361;27;20051;-76
2022/11/14 11:53:41;;;;;;;24.52;10.88;;;17.00;99.90;;;;;;5121917;27;20043;-75
2022/11/14 11:56:25;;;;;;;20.83;9.65;;;17.30;98.40;;;;;;5115664;27;20038;-75
2022/11/14 11:58:55;;;;;;;21.50;10.13;;;17.70;95.00;;;;;;5119712;27;20054;-77
2022/11/14 12:01:21;;;;;;;20.58;10.35;;;18.10;94.50;;;;;;5118574;27;20027;-74
2022/11/14 12:03:53;;;;;;;;;;;18.30;92.80;;;;;;5112166;28;20062;-75
2022/11/14 12:06:24;;;;;;;19.80;10.13;;;18.10;80.90;;;;;;5091681;28;19926;-74
2022/11/14 12:09:01;;;;;;;19.52;9.80;;;18.00;88.00;;;;;;5111633;28;20060;-74
2022/11/14 12:11:29;;;;;;;19.77;9.88;;;17.90;86.90;;;;;;5092866;28;20056;-74
2022/11/14 12:14:13;;;;;;;21.40;9.77;;;17.80;83.80;;;;;;5115363;27;20625;-74
2022/11/14 12:16:57;;;;;;;19.67;10.13;;;17.60;81.10;;;;;;5118740;27;20179;-72
2022/11/14 12:19:52;;;;;;;17.23;9.20;;;17.40;81.50;;;;;;5093457;28;20080;-74
2022/11/14 12:22:35;;;;;;;19.98;9.50;;;17.50;81.30;;;;;;5091911;28;20067;-74
2022/11/14 12:25:03;;;;;;;19.25;10.38;;;17.80;81.00;;;;;;5105390;28;20464;-78
2022/11/14 12:27:54;;;;;;;19.60;9.60;;;18.20;79.70;;;;;;5109380;27;20043;-73
2022/11/14 12:30:22;;;;;;;19.25;9.52;;;18.60;76.00;;;;;;5101126;28;20048;-73
2022/11/14 12:32:56;;;;;;;18.85;9.35;;;19.00;77.90;;;;;;5090642;28;20665;-73
2022/11/14 12:35:30;;;;;;;20.58;9.68;;;19.10;75.50;;;;;;5109871;27;20056;-73
2022/11/14 12:37:58;;;;;;;20.05;8.75;;;19.30;75.10;;;;;;5095121;28;20044;-75
2022/11/14 12:40:39;;;;;;;19.40;8.82;;;19.50;74.20;;;;;;5092588;28;20051;-73
2022/11/14 12:43:34;;;;;;;19.80;8.73;;;19.70;71.60;;;;;;5110689;28;20047;-81
2022/11/14 12:46:07;;;;;;;16.75;9.00;;;20.00;69.60;;;;;;5115103;27;20043;-75
2022/11/14 12:48:35;;;;;;;17.35;9.15;;;20.50;71.30;;;;;;5100123;27;20055;-75
2022/11/14 12:51:22;;;;;;;16.05;8.13;;;20.90;69.70;;;;;;5113937;27;20039;-75